Terminal Aerodrome Forecast
Issued by NWS

Home | Current Version | Previous Version | Text Only | Print | Product List | Glossary On
Versions: 1 2 3 4 5 6 7 8 9 10 11 12 13 14 15 16 17
000
FTUS46 KMTR 221100
TAFSNS
TAF
KSNS 221132Z 2212/2312 VRB03KT P6SM OVC012
     FM221800 28005KT P6SM SKC
     FM222000 27015KT P6SM SKC
     FM230200 28011KT P6SM OVC008
     FM230700 27005KT P6SM OVC008=

USA.gov is the U.S. government's official web portal to all federal, state and local government web resources and services.